Time;durP1;ratioP1;P1;durP2;ratioP2;P2;SDS_P1;SDS_P2;PMS_P1;PMS_P2;Temp;Humidity;BMP_temperature;BMP_pressure;BME280_temperature;BME280_humidity;BME280_pressure;Samples;Min_cycle;Max_cycle;Signal;HPM_P1;HPM_P2
2021/09/07 00:00:54;;;;;;;15.98;9.65;;;14.10;99.90;;;;;;4858358;29;20057;-90
2021/09/07 00:03:20;;;;;;;19.75;10.75;;;14.20;99.90;;;;;;4844834;29;20049;-89
2021/09/07 00:05:46;;;;;;;18.92;10.85;;;14.10;99.90;;;;;;4859839;29;20071;-90
2021/09/07 00:08:12;;;;;;;21.02;11.00;;;14.20;99.90;;;;;;4860444;29;20082;-89
2021/09/07 00:10:38;;;;;;;18.58;10.82;;;14.20;99.90;;;;;;4876668;29;20053;-88
2021/09/07 00:13:03;;;;;;;16.05;11.05;;;14.20;99.90;;;;;;4843737;29;20060;-89
2021/09/07 00:15:29;;;;;;;20.15;10.85;;;14.20;99.90;;;;;;4813871;29;20829;-89
2021/09/07 00:17:55;;;;;;;18.15;11.60;;;14.20;99.90;;;;;;4843927;29;20045;-89
2021/09/07 00:20:23;;;;;;;18.30;10.95;;;14.30;99.90;;;;;;4844919;29;20060;-89
2021/09/07 00:22:49;;;;;;;17.00;10.73;;;14.30;99.90;;;;;;4829382;29;20049;-89
2021/09/07 00:25:15;;;;;;;16.45;10.70;;;14.30;99.90;;;;;;4858999;29;20053;-90
2021/09/07 00:27:41;;;;;;;20.30;11.40;;;14.30;99.90;;;;;;4859894;29;20056;-91
2021/09/07 00:30:07;;;;;;;14.65;10.18;;;14.40;99.90;;;;;;4843837;29;20073;-91
2021/09/07 00:32:33;;;;;;;17.30;11.50;;;14.40;99.90;;;;;;4843871;29;20053;-92
2021/09/07 00:34:59;;;;;;;30.17;12.43;;;14.30;99.90;;;;;;4843785;29;20120;-91
2021/09/07 00:37:24;;;;;;;21.95;12.65;;;14.30;99.90;;;;;;4860128;29;20493;-91
2021/09/07 00:39:50;;;;;;;16.55;11.77;;;14.40;99.90;;;;;;4829319;29;20055;-88
2021/09/07 00:42:16;;;;;;;19.48;13.60;;;14.30;99.90;;;;;;4841069;29;20466;-92
2021/09/07 00:44:42;;;;;;;21.00;11.95;;;14.40;99.90;;;;;;4859237;29;20570;-90
2021/09/07 00:47:08;;;;;;;21.25;13.35;;;14.40;99.90;;;;;;4842817;29;20669;-90
2021/09/07 00:49:35;;;;;;;19.90;12.38;;;14.40;99.90;;;;;;4829413;29;20194;-89
2021/09/07 00:52:03;;;;;;;22.65;13.75;;;14.40;99.90;;;;;;4858014;29;20938;-91
2021/09/07 00:54:31;;;;;;;17.90;13.15;;;14.40;99.90;;;;;;4858928;29;20095;-90
2021/09/07 00:56:58;;;;;;;23.38;13.63;;;14.40;99.90;;;;;;4857748;29;20060;-90
2021/09/07 00:59:24;;;;;;;19.55;13.68;;;14.40;99.90;;;;;;4859241;29;20049;-90
2021/09/07 01:01:50;;;;;;;13.82;10.55;;;14.40;99.90;;;;;;4827396;29;20057;-89
2021/09/07 01:04:16;;;;;;;20.15;13.35;;;14.40;99.90;;;;;;4843231;29;20485;-90
2021/09/07 01:06:42;;;;;;;24.27;14.63;;;14.40;99.90;;;;;;4859504;29;20060;-89
2021/09/07 01:09:09;;;;;;;25.90;14.02;;;14.40;99.90;;;;;;4823705;29;20052;-90
2021/09/07 01:11:36;;;;;;;18.77;12.00;;;14.40;99.90;;;;;;4859491;29;20048;-90
2021/09/07 01:14:02;;;;;;;19.48;13.00;;;14.40;99.90;;;;;;4858511;29;20053;-90
2021/09/07 01:16:28;;;;;;;20.60;13.18;;;14.40;99.90;;;;;;4859474;29;20055;-90
2021/09/07 01:18:55;;;;;;;23.10;12.38;;;14.40;99.90;;;;;;4843366;29;20136;-89
2021/09/07 01:21:21;;;;;;;15.30;11.52;;;14.40;99.90;;;;;;4859193;29;20071;-90
2021/09/07 01:23:48;;;;;;;19.67;12.30;;;14.40;99.90;;;;;;4849602;29;20060;-90
2021/09/07 01:26:16;;;;;;;21.45;14.35;;;14.40;99.90;;;;;;4871932;29;20120;-89
2021/09/07 01:28:43;;;;;;;23.70;15.45;;;14.40;99.90;;;;;;4859352;29;20063;-89
2021/09/07 01:31:10;;;;;;;23.27;15.55;;;14.40;99.90;;;;;;4857361;29;20156;-89
2021/09/07 01:33:36;;;;;;;27.15;15.45;;;14.40;99.90;;;;;;4843689;29;20192;-91
2021/09/07 01:36:03;;;;;;;24.23;15.07;;;14.40;99.90;;;;;;4842695;29;20431;-91
2021/09/07 01:38:30;;;;;;;22.65;15.27;;;14.40;99.90;;;;;;4820473;29;20346;-92
2021/09/07 01:40:56;;;;;;;19.55;13.80;;;14.40;99.90;;;;;;4843722;29;20127;-89
2021/09/07 01:43:22;;;;;;;18.13;13.05;;;14.40;99.90;;;;;;4843528;29;20084;-91
2021/09/07 01:45:49;;;;;;;19.17;13.05;;;14.40;99.90;;;;;;4859378;29;20079;-92
2021/09/07 01:48:16;;;;;;;19.73;13.25;;;14.40;99.90;;;;;;4842179;29;20862;-91
2021/09/07 01:50:43;;;;;;;29.98;16.20;;;14.50;99.90;;;;;;4859542;29;20041;-92
2021/09/07 01:53:09;;;;;;;23.80;15.00;;;14.50;99.90;;;;;;4857804;29;20510;-91
2021/09/07 01:55:35;;;;;;;17.90;13.82;;;14.50;99.90;;;;;;4875897;29;20129;-92
2021/09/07 01:58:01;;;;;;;22.90;15.95;;;14.50;99.90;;;;;;4832400;29;20065;-91
2021/09/07 02:00:27;;;;;;;22.90;17.23;;;14.50;99.90;;;;;;4858548;29;20060;-91
2021/09/07 02:02:53;;;;;;;24.70;16.23;;;14.50;99.90;;;;;;4858717;29;20045;-92
2021/09/07 02:05:19;;;;;;;30.70;18.33;;;14.50;99.90;;;;;;4842833;29;20044;-91
2021/09/07 02:07:45;;;;;;;23.73;14.50;;;14.50;99.90;;;;;;4858987;29;20052;-90
2021/09/07 02:10:11;;;;;;;30.25;19.73;;;14.50;99.90;;;;;;4861692;29;20402;-91
2021/09/07 02:12:37;;;;;;;34.88;19.60;;;14.50;99.90;;;;;;4846563;29;20398;-90
2021/09/07 02:15:03;;;;;;;30.48;19.67;;;14.50;99.90;;;;;;4854130;29;20045;-90
2021/09/07 02:17:29;;;;;;;32.28;18.92;;;14.50;99.90;;;;;;4858080;29;20092;-89
2021/09/07 02:19:55;;;;;;;32.33;20.27;;;14.50;99.90;;;;;;4846598;29;20528;-90
2021/09/07 02:22:22;;;;;;;30.67;19.70;;;14.60;99.90;;;;;;4840198;29;20706;-90
2021/09/07 02:24:48;;;;;;;34.58;19.77;;;14.50;99.90;;;;;;4861872;29;20095;-90
2021/09/07 02:27:14;;;;;;;31.60;19.33;;;14.50;99.90;;;;;;4861270;29;20435;-89
2021/09/07 02:29:40;;;;;;;37.90;22.00;;;14.50;99.90;;;;;;4845905;29;20128;-90
2021/09/07 02:32:07;;;;;;;33.38;21.23;;;14.50;99.90;;;;;;4860839;29;20124;-90
2021/09/07 02:34:33;;;;;;;30.30;20.20;;;14.50;99.90;;;;;;4842904;29;20084;-89
2021/09/07 02:36:59;;;;;;;32.95;21.75;;;14.50;99.90;;;;;;4861794;29;20060;-89
2021/09/07 02:39:25;;;;;;;23.92;16.55;;;14.50;99.90;;;;;;4845703;29;20521;-89
2021/09/07 02:41:50;;;;;;;23.75;16.35;;;14.50;99.90;;;;;;4878087;29;20048;-90
2021/09/07 02:44:17;;;;;;;25.33;15.98;;;14.40;99.90;;;;;;4860273;29;20045;-90
2021/09/07 02:46:43;;;;;;;30.25;18.88;;;14.40;99.90;;;;;;4861590;29;20057;-89
2021/09/07 02:49:09;;;;;;;30.95;19.50;;;14.40;99.90;;;;;;4845498;29;20055;-89
2021/09/07 02:51:35;;;;;;;31.35;21.65;;;14.40;99.90;;;;;;4846012;29;20467;-89
2021/09/07 02:54:00;;;;;;;29.13;19.02;;;14.40;99.90;;;;;;4845270;29;20512;-90
2021/09/07 02:56:26;;;;;;;28.48;18.00;;;14.40;99.90;;;;;;4860529;29;20112;-89
2021/09/07 02:58:52;;;;;;;28.77;16.17;;;14.40;99.90;;;;;;4877918;29;20513;-88
2021/09/07 03:01:18;;;;;;;33.50;19.60;;;14.40;99.90;;;;;;4845380;29;20053;-90
2021/09/07 03:03:43;;;;;;;24.92;16.90;;;14.40;99.90;;;;;;4861124;29;20692;-89
2021/09/07 03:06:09;;;;;;;34.03;20.08;;;14.40;99.90;;;;;;4844256;29;20053;-89
2021/09/07 03:08:35;;;;;;;17.95;14.13;;;14.50;99.90;;;;;;4815363;29;20052;-89
2021/09/07 03:11:00;;;;;;;26.83;17.83;;;14.40;99.90;;;;;;4861237;29;20041;-89
2021/09/07 03:13:27;;;;;;;27.60;17.85;;;14.40;99.90;;;;;;4859859;29;20044;-89
2021/09/07 03:15:52;;;;;;;30.05;19.30;;;14.40;99.90;;;;;;4860192;29;20064;-89
2021/09/07 03:18:18;;;;;;;34.63;20.52;;;14.50;99.90;;;;;;4860069;29;20057;-90
2021/09/07 03:20:44;;;;;;;39.40;21.92;;;14.50;99.90;;;;;;4845161;29;20096;-90
2021/09/07 03:23:09;;;;;;;34.28;20.98;;;14.50;99.90;;;;;;4829742;29;20049;-90
2021/09/07 03:25:35;;;;;;;28.23;17.40;;;14.50;99.90;;;;;;4845897;29;20061;-89
2021/09/07 03:28:01;;;;;;;26.25;17.95;;;14.50;99.90;;;;;;4830225;29;20072;-89
2021/09/07 03:30:26;;;;;;;23.73;16.30;;;14.50;99.90;;;;;;4844251;29;20048;-91
2021/09/07 03:32:52;;;;;;;36.70;21.73;;;14.50;99.90;;;;;;4844442;29;20455;-91
2021/09/07 03:35:19;;;;;;;42.75;22.55;;;14.50;99.90;;;;;;4845117;29;20053;-91
2021/09/07 03:37:44;;;;;;;35.80;20.35;;;14.50;99.90;;;;;;4860879;29;20106;-92
2021/09/07 03:40:12;;;;;;;39.08;22.17;;;14.50;99.90;;;;;;4845300;29;20104;-91
2021/09/07 03:42:41;;;;;;;33.25;21.98;;;14.50;99.90;;;;;;4846047;29;20048;-91
2021/09/07 03:45:11;;;;;;;37.42;23.27;;;14.60;99.90;;;;;;4830138;29;20177;-91
2021/09/07 03:47:37;;;;;;;38.38;23.67;;;14.60;99.90;;;;;;4846036;29;20132;-91
2021/09/07 03:50:04;;;;;;;39.40;24.63;;;14.60;99.90;;;;;;4845663;29;20124;-91
2021/09/07 03:52:30;;;;;;;38.33;23.55;;;14.60;99.90;;;;;;4860187;29;20052;-91
2021/09/07 03:54:56;;;;;;;39.78;24.60;;;14.60;99.90;;;;;;4859538;29;20395;-91
2021/09/07 03:57:22;;;;;;;29.45;19.40;;;14.60;99.90;;;;;;4844495;29;20181;-91
2021/09/07 03:59:48;;;;;;;44.83;24.48;;;14.50;99.90;;;;;;4860448;29;20053;-90
2021/09/07 04:02:14;;;;;;;40.67;24.05;;;14.60;99.90;;;;;;4844353;29;20072;-90
2021/09/07 04:04:39;;;;;;;35.45;21.00;;;14.60;99.90;;;;;;4844718;29;20132;-90
2021/09/07 04:07:05;;;;;;;36.25;21.75;;;14.60;99.90;;;;;;4859650;29;20060;-90
2021/09/07 04:09:31;;;;;;;28.17;19.10;;;14.60;99.90;;;;;;4859318;29;20072;-90
2021/09/07 04:11:57;;;;;;;27.92;16.42;;;14.60;99.90;;;;;;4844850;29;20435;-91
2021/09/07 04:14:22;;;;;;;24.67;17.65;;;14.60;99.90;;;;;;4859331;29;20059;-90
2021/09/07 04:16:48;;;;;;;22.20;14.90;;;14.60;99.90;;;;;;4857631;29;20436;-90
2021/09/07 04:19:14;;;;;;;18.10;13.48;;;14.60;99.90;;;;;;4875866;29;20053;-89
2021/09/07 04:21:40;;;;;;;25.75;17.27;;;14.50;99.90;;;;;;4844837;29;20128;-90
2021/09/07 04:24:06;;;;;;;18.85;13.43;;;14.60;99.90;;;;;;4844398;29;20064;-91
2021/09/07 04:26:32;;;;;;;33.67;19.25;;;14.60;99.90;;;;;;4858954;29;20629;-90
2021/09/07 04:28:59;;;;;;;27.65;20.08;;;14.60;99.90;;;;;;4860066;29;20514;-91
2021/09/07 04:31:25;;;;;;;32.58;19.73;;;14.60;99.90;;;;;;4857329;29;20064;-90
2021/09/07 04:33:51;;;;;;;30.85;20.85;;;14.60;99.90;;;;;;4858564;29;20072;-91
2021/09/07 04:36:16;;;;;;;27.88;17.38;;;14.60;99.90;;;;;;4828975;29;20060;-90
2021/09/07 04:38:42;;;;;;;27.67;16.70;;;14.60;99.90;;;;;;4844691;29;20126;-91
2021/09/07 04:41:08;;;;;;;24.88;16.17;;;14.60;99.90;;;;;;4844328;29;20071;-92
2021/09/07 04:43:34;;;;;;;25.05;15.90;;;14.60;99.90;;;;;;4859240;29;20498;-91
2021/09/07 04:45:59;;;;;;;28.55;16.17;;;14.60;99.90;;;;;;4859040;29;20553;-91
2021/09/07 04:48:25;;;;;;;27.15;15.93;;;14.60;99.90;;;;;;4858727;29;20132;-91
2021/09/07 04:50:51;;;;;;;21.30;15.00;;;14.60;99.90;;;;;;4829243;29;20109;-91
2021/09/07 04:53:17;;;;;;;22.83;13.38;;;14.60;99.90;;;;;;4828488;29;20045;-90
2021/09/07 04:55:42;;;;;;;27.60;18.38;;;14.60;99.90;;;;;;4875426;29;20056;-89
2021/09/07 04:58:08;;;;;;;23.23;15.63;;;14.70;99.90;;;;;;4859070;29;20140;-90
2021/09/07 05:00:34;;;;;;;25.23;15.63;;;14.70;99.90;;;;;;4854607;29;20116;-89
2021/09/07 05:02:59;;;;;;;25.38;15.20;;;14.70;99.90;;;;;;4875916;29;20108;-90
2021/09/07 05:05:25;;;;;;;21.27;14.75;;;14.70;99.90;;;;;;4870835;29;20402;-90
2021/09/07 05:07:51;;;;;;;31.63;19.20;;;14.70;99.90;;;;;;4842748;29;20055;-90
2021/09/07 05:10:17;;;;;;;29.85;17.90;;;14.70;99.90;;;;;;4843773;29;20487;-89
2021/09/07 05:12:43;;;;;;;30.23;15.85;;;14.70;99.90;;;;;;4858635;29;20471;-90
2021/09/07 05:15:09;;;;;;;25.35;14.95;;;14.70;99.90;;;;;;4859523;29;20609;-91
2021/09/07 05:17:35;;;;;;;27.42;18.83;;;14.80;99.90;;;;;;4842608;29;20051;-90
2021/09/07 05:20:01;;;;;;;35.42;19.25;;;14.80;99.90;;;;;;4843485;29;20049;-91
2021/09/07 05:22:27;;;;;;;24.45;15.80;;;14.80;99.90;;;;;;4875284;29;20124;-90
2021/09/07 05:24:53;;;;;;;38.42;19.45;;;14.80;99.90;;;;;;4844052;29;20124;-90
2021/09/07 05:27:19;;;;;;;27.77;18.50;;;14.90;99.90;;;;;;4859091;29;20060;-90
2021/09/07 05:29:44;;;;;;;28.48;17.50;;;14.90;99.90;;;;;;4843166;29;20534;-89
2021/09/07 05:32:11;;;;;;;25.90;17.02;;;14.90;99.90;;;;;;4828062;29;20084;-90
2021/09/07 05:34:38;;;;;;;33.95;20.25;;;14.90;99.90;;;;;;4858453;29;20060;-90
2021/09/07 05:37:04;;;;;;;21.33;14.23;;;15.00;99.90;;;;;;4844312;29;20057;-90
2021/09/07 05:39:30;;;;;;;27.50;15.40;;;15.00;99.90;;;;;;4842841;29;20057;-89
2021/09/07 05:41:55;;;;;;;32.72;18.02;;;15.00;99.90;;;;;;4859125;29;20049;-89
2021/09/07 05:44:22;;;;;;;26.02;18.60;;;15.00;99.90;;;;;;4861974;29;20104;-90
2021/09/07 05:46:49;;;;;;;27.77;18.00;;;15.10;99.90;;;;;;4861529;29;20052;-89
2021/09/07 05:49:15;;;;;;;25.35;14.75;;;15.10;99.90;;;;;;4862604;29;20153;-89
2021/09/07 05:51:41;;;;;;;26.30;17.40;;;15.10;99.90;;;;;;4861978;29;20088;-92
2021/09/07 05:54:08;;;;;;;29.35;17.63;;;15.20;99.90;;;;;;4862824;29;20395;-87
2021/09/07 05:56:33;;;;;;;32.95;18.75;;;15.20;99.90;;;;;;4861509;29;20061;-91
2021/09/07 05:59:00;;;;;;;28.15;19.20;;;15.20;99.90;;;;;;4859827;29;20064;-90
2021/09/07 06:01:26;;;;;;;27.98;18.20;;;15.30;99.90;;;;;;4873242;29;20045;-90
2021/09/07 06:03:51;;;;;;;28.58;17.92;;;15.30;99.90;;;;;;4861633;29;20079;-90
2021/09/07 06:06:17;;;;;;;32.58;18.05;;;15.30;99.90;;;;;;4858278;29;20478;-90
2021/09/07 06:08:43;;;;;;;27.75;18.27;;;15.40;99.90;;;;;;4860347;29;20065;-91
2021/09/07 06:11:09;;;;;;;27.75;18.17;;;15.40;99.90;;;;;;4879378;29;20056;-90
2021/09/07 06:13:35;;;;;;;32.05;18.83;;;15.50;99.90;;;;;;4861434;29;20059;-92
2021/09/07 06:16:01;;;;;;;24.80;17.02;;;15.50;99.90;;;;;;4846934;29;20490;-92
2021/09/07 06:18:27;;;;;;;32.78;18.73;;;15.50;99.90;;;;;;4861051;29;20049;-90
2021/09/07 06:20:54;;;;;;;24.65;18.83;;;15.60;99.90;;;;;;4846106;29;20041;-92
2021/09/07 06:23:21;;;;;;;27.38;17.15;;;15.60;99.90;;;;;;4844884;29;20041;-90
2021/09/07 06:25:46;;;;;;;34.97;18.60;;;15.60;99.90;;;;;;4860400;29;20037;-90
2021/09/07 06:28:12;;;;;;;32.90;17.67;;;15.70;99.90;;;;;;4846584;29;20051;-91
2021/09/07 06:30:38;;;;;;;27.85;17.88;;;15.70;99.90;;;;;;4845916;29;20041;-90
2021/09/07 06:33:04;;;;;;;30.88;17.98;;;15.80;99.90;;;;;;4846289;29;20405;-91
2021/09/07 06:35:29;;;;;;;30.88;18.17;;;15.80;99.90;;;;;;4845909;29;20105;-90
2021/09/07 06:37:55;;;;;;;29.73;17.63;;;15.90;99.90;;;;;;4861132;29;20052;-91
2021/09/07 06:40:21;;;;;;;29.17;17.33;;;15.90;99.90;;;;;;4857688;29;20077;-91
2021/09/07 06:42:48;;;;;;;28.00;16.33;;;16.00;99.90;;;;;;4860679;29;20060;-90
2021/09/07 06:45:14;;;;;;;19.83;15.18;;;16.00;99.90;;;;;;4861884;29;20041;-91
2021/09/07 06:47:39;;;;;;;26.90;17.52;;;16.10;99.90;;;;;;4845608;29;20051;-91
2021/09/07 06:50:06;;;;;;;29.38;17.70;;;16.20;99.90;;;;;;4846085;29;20052;-91
2021/09/07 06:52:31;;;;;;;27.10;15.40;;;16.30;99.90;;;;;;4843647;29;20128;-90
2021/09/07 06:54:58;;;;;;;23.08;15.88;;;16.30;99.90;;;;;;4844998;29;20696;-91
2021/09/07 06:57:26;;;;;;;26.52;17.95;;;16.40;99.90;;;;;;4845577;29;20060;-90
2021/09/07 06:59:53;;;;;;;30.92;17.27;;;16.50;99.90;;;;;;4859641;29;20138;-90
2021/09/07 07:02:19;;;;;;;17.80;13.63;;;16.60;99.90;;;;;;4876659;29;20045;-90
2021/09/07 07:04:45;;;;;;;27.52;16.83;;;16.70;99.90;;;;;;4830086;29;20056;-90
2021/09/07 07:07:11;;;;;;;31.17;16.08;;;16.80;99.90;;;;;;4860676;29;20049;-92
2021/09/07 07:09:37;;;;;;;25.98;16.25;;;16.90;99.90;;;;;;4844779;29;20096;-90
2021/09/07 07:12:03;;;;;;;25.90;16.40;;;17.00;99.90;;;;;;4861005;29;20770;-91
2021/09/07 07:14:29;;;;;;;20.95;15.05;;;17.10;99.90;;;;;;4830714;29;20052;-91
2021/09/07 07:16:54;;;;;;;20.85;15.00;;;17.10;99.90;;;;;;4860433;29;20798;-90
2021/09/07 07:19:20;;;;;;;23.35;15.07;;;17.20;99.90;;;;;;4842868;29;20085;-91
2021/09/07 07:21:47;;;;;;;19.15;14.50;;;17.30;99.90;;;;;;4831083;29;20046;-89
2021/09/07 07:24:17;;;;;;;24.35;15.60;;;17.30;99.90;;;;;;4836907;29;20057;-91
2021/09/07 07:26:46;;;;;;;22.55;14.23;;;17.40;99.90;;;;;;4860349;29;20087;-91
2021/09/07 07:29:12;;;;;;;17.73;13.80;;;17.40;99.90;;;;;;4860788;29;20505;-91
2021/09/07 07:31:42;;;;;;;19.77;13.75;;;17.50;99.90;;;;;;4860226;29;20509;-90
2021/09/07 07:34:08;;;;;;;20.08;14.52;;;17.50;99.90;;;;;;4861248;29;20052;-91
2021/09/07 07:36:34;;;;;;;23.00;13.98;;;17.60;99.90;;;;;;4858613;29;20534;-90
2021/09/07 07:39:03;;;;;;;30.77;14.60;;;17.70;99.90;;;;;;4843845;29;20065;-88
2021/09/07 07:41:29;;;;;;;31.43;13.70;;;17.80;99.90;;;;;;4842344;29;20053;-89
2021/09/07 07:43:55;;;;;;;20.48;13.50;;;17.90;99.90;;;;;;4844920;29;20056;-91
2021/09/07 07:46:21;;;;;;;24.33;14.85;;;18.00;99.90;;;;;;4869636;29;20491;-92
2021/09/07 07:48:47;;;;;;;20.05;14.07;;;18.00;99.90;;;;;;4847891;29;20052;-90
2021/09/07 07:51:13;;;;;;;25.05;14.43;;;18.00;99.90;;;;;;4859659;29;20045;-90
2021/09/07 07:53:40;;;;;;;22.48;14.88;;;18.00;99.90;;;;;;4858965;29;20218;-90
2021/09/07 07:56:06;;;;;;;29.90;15.02;;;18.00;99.90;;;;;;4874279;29;20056;-90
2021/09/07 07:58:32;;;;;;;19.95;14.02;;;18.00;99.90;;;;;;4844818;29;20470;-88
2021/09/07 08:00:58;;;;;;;20.98;13.55;;;18.10;99.90;;;;;;4859083;29;20128;-91
2021/09/07 08:03:24;;;;;;;20.00;13.25;;;18.10;99.90;;;;;;4844245;29;20049;-90
2021/09/07 08:05:50;;;;;;;19.38;13.18;;;18.10;99.90;;;;;;4859072;29;20190;-90
2021/09/07 08:08:17;;;;;;;17.60;12.02;;;18.10;99.90;;;;;;4859994;29;20061;-90
2021/09/07 08:10:42;;;;;;;21.58;13.93;;;18.10;99.90;;;;;;4858584;29;20048;-91
2021/09/07 08:13:08;;;;;;;20.60;12.68;;;18.20;99.90;;;;;;4827722;29;20041;-90
2021/09/07 08:15:34;;;;;;;18.70;12.38;;;18.20;99.90;;;;;;4843230;29;20200;-90
2021/09/07 08:18:02;;;;;;;19.08;12.60;;;18.30;99.90;;;;;;4842301;29;20041;-89
2021/09/07 08:20:32;;;;;;;22.83;12.43;;;18.30;99.90;;;;;;4849774;29;20049;-89
2021/09/07 08:22:59;;;;;;;17.00;11.18;;;18.40;99.90;;;;;;4856168;29;20052;-90
2021/09/07 08:25:25;;;;;;;16.48;10.95;;;18.40;99.90;;;;;;4873476;29;20410;-90
2021/09/07 08:27:51;;;;;;;15.85;10.57;;;18.60;99.90;;;;;;4858431;29;20121;-90
2021/09/07 08:30:17;;;;;;;17.80;11.52;;;18.60;99.90;;;;;;4849542;29;20733;-89
2021/09/07 08:32:43;;;;;;;14.95;10.43;;;18.70;99.90;;;;;;4871762;29;20060;-90
2021/09/07 08:35:11;;;;;;;15.70;10.27;;;18.80;99.90;;;;;;4858818;29;20124;-90
2021/09/07 08:37:41;;;;;;;18.73;10.18;;;18.90;99.90;;;;;;4843968;29;20057;-89
2021/09/07 08:40:10;;;;;;;16.40;9.88;;;19.10;99.90;;;;;;4848313;29;20049;-90
2021/09/07 08:42:36;;;;;;;14.40;9.90;;;19.10;99.90;;;;;;4859063;29;20057;-91
2021/09/07 08:45:04;;;;;;;21.00;10.55;;;19.30;99.90;;;;;;4858412;29;20048;-88
2021/09/07 08:47:30;;;;;;;18.67;9.00;;;19.40;99.90;;;;;;4861836;29;20060;-89
2021/09/07 08:49:57;;;;;;;15.82;9.20;;;19.50;99.90;;;;;;4845173;29;20120;-90
2021/09/07 08:52:24;;;;;;;17.25;8.60;;;19.70;99.90;;;;;;4828588;29;20049;-90
2021/09/07 08:54:50;;;;;;;12.75;8.60;;;19.80;99.90;;;;;;4857980;29;20056;-88
2021/09/07 08:57:16;;;;;;;13.98;8.68;;;19.90;99.90;;;;;;4859474;29;20057;-89
2021/09/07 08:59:44;;;;;;;12.20;8.02;;;20.00;99.90;;;;;;4857085;29;20284;-89
2021/09/07 09:02:16;;;;;;;10.35;7.97;;;20.10;99.90;;;;;;4857756;29;20057;-89
2021/09/07 09:04:49;;;;;;;12.85;8.15;;;20.10;99.90;;;;;;4857573;29;20052;-89
2021/09/07 09:07:25;;;;;;;12.38;8.10;;;20.10;99.90;;;;;;4827343;29;20577;-89
2021/09/07 09:09:53;;;;;;;15.27;8.07;;;20.20;99.90;;;;;;4849862;29;20410;-89
2021/09/07 09:12:39;;;;;;;11.43;8.05;;;20.30;99.90;;;;;;4843375;29;20053;-90
2021/09/07 09:15:17;;;;;;;16.23;8.68;;;20.40;99.90;;;;;;4840760;29;20515;-90
2021/09/07 09:17:43;;;;;;;11.95;7.72;;;20.50;99.90;;;;;;4860946;29;20061;-90
2021/09/07 09:20:17;;;;;;;11.85;8.05;;;20.60;99.90;;;;;;4863539;29;20643;-88
2021/09/07 09:23:04;;;;;;;9.90;7.60;;;20.60;99.90;;;;;;4849691;29;20156;-89
2021/09/07 09:25:42;;;;;;;11.93;7.93;;;20.70;99.90;;;;;;4863615;29;20820;-89
2021/09/07 09:28:09;;;;;;;11.02;7.50;;;20.80;99.90;;;;;;4847256;29;20056;-89
2021/09/07 09:30:43;;;;;;;11.18;7.05;;;20.90;99.90;;;;;;4847254;29;20092;-90
2021/09/07 09:33:12;;;;;;;18.00;7.45;;;21.00;99.90;;;;;;4861790;29;20084;-90
2021/09/07 09:35:54;;;;;;;10.60;7.35;;;21.10;99.90;;;;;;4863482;29;20061;-88
2021/09/07 09:38:22;;;;;;;9.18;6.03;;;21.10;99.90;;;;;;4862793;29;20048;-89
2021/09/07 09:40:57;;;;;;;10.93;6.65;;;21.30;99.90;;;;;;4880062;29;20088;-88
2021/09/07 09:43:32;;;;;;;13.57;7.72;;;21.30;99.90;;;;;;4849377;29;20088;-88
2021/09/07 09:46:19;;;;;;;8.07;6.97;;;21.40;99.90;;;;;;4863409;29;20502;-89
2021/09/07 09:48:46;;;;;;;10.07;7.13;;;21.50;99.90;;;;;;4837319;29;20053;-89
2021/09/07 09:51:16;;;;;;;11.40;6.95;;;21.50;99.90;;;;;;4864354;29;20044;-89
2021/09/07 09:53:47;;;;;;;18.70;7.95;;;21.60;99.90;;;;;;4864369;29;20142;-88
2021/09/07 09:56:13;;;;;;;10.25;6.57;;;21.60;99.90;;;;;;4864169;29;20118;-89
2021/09/07 09:58:39;;;;;;;10.88;7.50;;;21.70;99.90;;;;;;4834263;29;20218;-89
2021/09/07 10:01:05;;;;;;;12.00;7.57;;;21.70;99.90;;;;;;4848689;29;20084;-88
2021/09/07 10:03:33;;;;;;;14.32;7.43;;;21.80;99.90;;;;;;4846183;29;20048;-90
2021/09/07 10:05:59;;;;;;;11.77;7.20;;;21.90;99.90;;;;;;4863560;29;20458;-91
2021/09/07 10:08:25;;;;;;;14.45;7.50;;;22.00;99.90;;;;;;4865168;29;20049;-94
2021/09/07 10:11:04;;;;;;;10.27;7.07;;;22.10;99.90;;;;;;4863898;29;20522;-96
2021/09/07 10:13:33;;;;;;;12.82;8.13;;;22.10;99.90;;;;;;4849059;29;20065;-94
2021/09/07 10:16:09;;;;;;;14.13;7.53;;;22.20;99.90;;;;;;4851854;29;20533;-94
2021/09/07 10:23:59;;;;;;;13.35;8.32;;;22.50;99.90;;;;;;4866865;29;20061;-88
2021/09/07 10:26:40;;;;;;;16.67;9.57;;;22.50;99.90;;;;;;4851131;29;20397;-89
2021/09/07 10:29:07;;;;;;;10.63;7.95;;;22.60;99.90;;;;;;4876065;29;20083;-90
2021/09/07 10:31:39;;;;;;;14.60;8.27;;;22.70;99.90;;;;;;4859305;29;20573;-94
2021/09/07 10:34:05;;;;;;;13.18;7.63;;;22.80;99.90;;;;;;4846330;29;20049;-95
2021/09/07 10:36:35;;;;;;;11.27;7.68;;;22.80;99.90;;;;;;4862115;29;20124;-92
2021/09/07 10:39:02;;;;;;;;;;;22.90;99.90;;;;;;4865042;29;20406;-94
2021/09/07 10:41:36;;;;;;;11.02;7.43;;;22.90;99.90;;;;;;4859913;29;19950;-94
2021/09/07 10:44:10;;;;;;;13.15;8.40;;;23.00;99.90;;;;;;4846508;29;20057;-94
2021/09/07 10:46:57;;;;;;;12.07;7.50;;;23.10;99.90;;;;;;4890826;29;20134;-93
2021/09/07 10:49:40;;;;;;;12.93;7.95;;;23.20;99.90;;;;;;4862870;29;20061;-93
2021/09/07 10:52:08;;;;;;;14.88;7.78;;;23.20;99.90;;;;;;4846132;29;20483;-94
2021/09/07 10:54:44;;;;;;;13.82;7.70;;;23.40;99.90;;;;;;4861631;29;20109;-93
2021/09/07 10:57:39;;;;;;;10.90;8.35;;;23.40;99.90;;;;;;4857636;29;20148;-91
2021/09/07 11:00:17;;;;;;;17.40;9.90;;;23.50;99.90;;;;;;4844309;29;20071;-91
2021/09/07 11:02:54;;;;;;;13.40;7.88;;;23.60;99.90;;;;;;4862977;29;20133;-90
2021/09/07 11:05:26;;;;;;;13.13;9.35;;;23.70;99.90;;;;;;4849936;29;20057;-93
2021/09/07 11:08:02;;;;;;;13.77;8.90;;;23.80;99.90;;;;;;4863405;29;20049;-93
2021/09/07 11:10:29;;;;;;;11.60;8.88;;;23.80;99.90;;;;;;4862803;29;20053;-93
2021/09/07 11:13:18;;;;;;;14.20;9.05;;;23.70;99.90;;;;;;4866515;29;20098;-92
2021/09/07 11:15:44;;;;;;;13.52;7.95;;;23.70;99.90;;;;;;4837013;29;20069;-91
2021/09/07 11:18:24;;;;;;;12.35;7.82;;;23.80;99.90;;;;;;4845057;29;20120;-91
2021/09/07 11:20:51;;;;;;;14.52;8.30;;;23.70;99.90;;;;;;4860815;29;20779;-92
2021/09/07 11:23:23;;;;;;;11.93;8.38;;;23.80;99.90;;;;;;4843883;29;20447;-92
2021/09/07 11:26:12;;;;;;;10.88;7.45;;;23.90;99.90;;;;;;4844933;29;20125;-93
2021/09/07 11:28:39;;;;;;;;;;;23.90;99.90;;;;;;4860939;29;20432;-93
2021/09/07 11:31:06;;;;;;;10.40;7.18;;;23.90;99.90;;;;;;4844168;29;20429;-90
2021/09/07 11:33:34;;;;;;;11.60;7.65;;;24.00;99.90;;;;;;4851773;29;20044;-93
2021/09/07 11:36:04;;;;;;;13.65;8.57;;;24.10;99.90;;;;;;4860409;29;20489;-92
2021/09/07 11:38:47;;;;;;;13.35;7.40;;;24.10;99.90;;;;;;4860613;29;20132;-92
2021/09/07 11:41:21;;;;;;;11.15;6.55;;;24.20;99.90;;;;;;4859656;29;20072;-92
2021/09/07 11:43:52;;;;;;;11.40;7.45;;;24.20;99.90;;;;;;4860953;29;20096;-92
2021/09/07 11:46:29;;;;;;;11.38;7.43;;;24.30;99.90;;;;;;4844119;29;20056;-92
2021/09/07 11:49:12;;;;;;;11.23;7.13;;;24.30;99.50;;;;;;4858832;29;20158;-92
2021/09/07 11:51:41;;;;;;;12.07;7.40;;;24.50;99.90;;;;;;4860446;29;20053;-92
2021/09/07 11:54:09;;;;;;;14.82;7.43;;;24.60;99.30;;;;;;4860620;29;20052;-90
2021/09/07 11:56:37;;;;;;;7.82;7.10;;;24.70;99.90;;;;;;4860242;29;20057;-92
2021/09/07 11:59:16;;;;;;;11.70;7.63;;;24.90;99.50;;;;;;4845301;29;20048;-92
2021/09/07 12:01:44;;;;;;;11.60;7.15;;;25.00;98.50;;;;;;4844588;29;20060;-92
2021/09/07 12:04:14;;;;;;;8.50;6.90;;;25.20;99.70;;;;;;4859986;29;20469;-91
2021/09/07 12:06:46;;;;;;;10.07;7.15;;;25.50;99.10;;;;;;4844653;29;20056;-92
2021/09/07 12:09:22;;;;;;;11.25;7.00;;;25.60;98.60;;;;;;4859903;29;20049;-92
2021/09/07 12:11:53;;;;;;;10.25;7.25;;;25.80;98.70;;;;;;4859805;29;20521;-91
2021/09/07 12:14:23;;;;;;;9.82;6.50;;;26.20;97.30;;;;;;4842024;29;20136;-92
2021/09/07 12:16:54;;;;;;;14.38;7.35;;;26.60;96.30;;;;;;4845422;29;20049;-92
2021/09/07 12:19:29;;;;;;;10.32;7.50;;;26.70;96.40;;;;;;4844341;29;20056;-92
2021/09/07 12:22:16;;;;;;;17.05;7.30;;;26.80;96.50;;;;;;4860161;29;20155;-91
2021/09/07 12:25:17;;;;;;;8.40;6.50;;;27.00;96.30;;;;;;4844209;29;20041;-92
2021/09/07 12:27:58;;;;;;;9.23;6.57;;;27.10;97.00;;;;;;4860104;29;20108;-93
2021/09/07 12:30:24;;;;;;;11.95;7.35;;;27.10;94.20;;;;;;4844386;29;20077;-92
2021/09/07 12:32:56;;;;;;;8.82;6.40;;;27.10;93.30;;;;;;4858972;29;20049;-92
2021/09/07 12:35:35;;;;;;;12.63;7.75;;;27.30;94.50;;;;;;4859280;29;20057;-91
2021/09/07 12:38:06;;;;;;;11.70;7.82;;;27.30;94.50;;;;;;4860068;29;20048;-93
2021/09/07 12:40:33;;;;;;;10.65;7.68;;;27.20;93.00;;;;;;4859422;29;20192;-92